Time;durP1;ratioP1;P1;durP2;ratioP2;P2;SDS_P1;SDS_P2;PMS_P1;PMS_P2;Temp;Humidity;BMP_temperature;BMP_pressure;BME280_temperature;BME280_humidity;BME280_pressure;Samples;Min_cycle;Max_cycle;Signal;HPM_P1;HPM_P2
2023/08/12 00:00:12;;;;;;;3.10;2.70;;;;;;;;;;615476;23;1455;-88
2023/08/12 00:00:27;;;;;;;3.15;2.83;;;;;;;;;;612811;23;1186;-88
2023/08/12 00:00:43;;;;;;;3.92;3.00;;;;;;;;;;619143;23;1304;-89
2023/08/12 00:00:59;;;;;;;6.05;3.10;;;;;;;;;;616644;23;1267;-88
2023/08/12 00:01:16;;;;;;;5.63;3.28;;;;;;;;;;616368;23;1510;-88
2023/08/12 00:01:32;;;;;;;5.72;3.20;;;;;;;;;;616053;23;1341;-88
2023/08/12 00:01:48;;;;;;;8.05;3.28;;;;;;;;;;613275;23;1109;-89
2023/08/12 00:02:07;;;;;;;6.63;3.08;;;;;;;;;;619303;23;1453;-89
2023/08/12 00:02:23;;;;;;;3.97;2.95;;;;;;;;;;619458;23;1037;-88
2023/08/12 00:02:42;;;;;;;4.40;3.10;;;;;;;;;;619546;23;1091;-89
2023/08/12 00:02:58;;;;;;;5.03;3.40;;;;;;;;;;619471;23;1339;-89
2023/08/12 00:03:13;;;;;;;5.13;3.40;;;;;;;;;;613802;23;1328;-89
2023/08/12 00:03:29;;;;;;;4.80;3.22;;;;;;;;;;615629;23;926;-89
2023/08/12 00:03:45;;;;;;;6.82;3.40;;;;;;;;;;616517;23;1296;-89
2023/08/12 00:04:01;;;;;;;7.75;3.35;;;;;;;;;;613739;24;1406;-88
2023/08/12 00:04:17;;;;;;;5.93;3.25;;;;;;;;;;610323;23;1314;-88
2023/08/12 00:04:33;;;;;;;3.92;2.90;;;;;;;;;;610193;23;1388;-88
2023/08/12 00:05:12;;;;;;;5.20;2.87;;;;;;;;;;610498;23;1372;-89
2023/08/12 00:05:27;;;;;;;7.78;3.50;;;;;;;;;;611248;24;1577;-89
2023/08/12 00:05:45;;;;;;;6.03;3.55;;;;;;;;;;610546;24;1299;-89
2023/08/12 00:06:01;;;;;;;6.03;3.43;;;;;;;;;;613713;24;1361;-89
2023/08/12 00:06:17;;;;;;;5.65;3.30;;;;;;;;;;613397;24;1324;-89
2023/08/12 00:06:33;;;;;;;5.53;3.10;;;;;;;;;;611735;23;1272;-89
2023/08/12 00:06:48;;;;;;;7.03;3.30;;;;;;;;;;616428;23;1487;-89
2023/08/12 00:07:07;;;;;;;5.65;3.58;;;;;;;;;;616136;23;1244;-87
2023/08/12 00:07:22;;;;;;;4.30;3.10;;;;;;;;;;619475;23;1476;-89
2023/08/12 00:07:42;;;;;;;4.03;3.00;;;;;;;;;;622705;23;1299;-89
2023/08/12 00:07:58;;;;;;;4.70;2.90;;;;;;;;;;622683;23;1591;-89
2023/08/12 00:08:16;;;;;;;5.53;3.28;;;;;;;;;;622803;23;796;-88
2023/08/12 00:08:32;;;;;;;3.90;3.45;;;;;;;;;;622132;23;1423;-89
2023/08/12 00:08:48;;;;;;;5.13;3.47;;;;;;;;;;622942;23;1305;-89
2023/08/12 00:09:04;;;;;;;6.55;3.50;;;;;;;;;;622913;23;1531;-89
2023/08/12 00:09:23;;;;;;;5.30;3.53;;;;;;;;;;624901;23;1436;-88
2023/08/12 00:09:41;;;;;;;4.43;3.38;;;;;;;;;;619418;23;1337;-89
2023/08/12 00:09:57;;;;;;;5.47;3.40;;;;;;;;;;625469;23;1407;-88
2023/08/12 00:10:16;;;;;;;6.18;3.35;;;;;;;;;;622428;23;1382;-88
2023/08/12 00:10:32;;;;;;;5.38;3.20;;;;;;;;;;622355;23;1186;-89
2023/08/12 00:10:48;;;;;;;5.03;3.20;;;;;;;;;;616679;23;1428;-89
2023/08/12 00:11:06;;;;;;;5.55;3.20;;;;;;;;;;619603;23;1356;-88
2023/08/12 00:11:26;;;;;;;4.68;3.15;;;;;;;;;;622541;23;1344;-89
2023/08/12 00:11:45;;;;;;;4.20;3.22;;;;;;;;;;622622;23;867;-89
2023/08/12 00:12:03;;;;;;;6.72;3.60;;;;;;;;;;619640;23;1510;-89
2023/08/12 00:12:29;;;;;;;6.22;3.42;;;;;;;;;;618994;23;1427;-88
2023/08/12 00:12:45;;;;;;;5.00;3.40;;;;;;;;;;621774;23;1140;-89
2023/08/12 00:13:00;;;;;;;4.88;3.30;;;;;;;;;;619880;23;1200;-88
2023/08/12 00:13:31;;;;;;;4.47;3.30;;;;;;;;;;621323;23;1224;-89
2023/08/12 00:13:47;;;;;;;3.58;2.90;;;;;;;;;;619823;23;856;-88
2023/08/12 00:14:06;;;;;;;4.47;2.92;;;;;;;;;;619900;23;1406;-88
2023/08/12 00:14:30;;;;;;;5.38;3.20;;;;;;;;;;618820;23;1502;-88
2023/08/12 00:14:46;;;;;;;6.40;3.30;;;;;;;;;;618965;23;1356;-88
2023/08/12 00:15:05;;;;;;;7.70;3.30;;;;;;;;;;622084;23;872;-88
2023/08/12 00:15:26;;;;;;;5.65;3.20;;;;;;;;;;622345;23;1427;-88
2023/08/12 00:15:45;;;;;;;6.20;3.20;;;;;;;;;;619950;23;1294;-87
2023/08/12 00:16:08;;;;;;;5.35;3.47;;;;;;;;;;618901;23;1298;-88
2023/08/12 00:16:24;;;;;;;7.88;3.33;;;;;;;;;;622488;23;1386;-88
2023/08/12 00:16:46;;;;;;;7.40;3.05;;;;;;;;;;623054;23;1421;-89
2023/08/12 00:17:04;;;;;;;4.90;3.10;;;;;;;;;;622316;23;1304;-88
2023/08/12 00:17:20;;;;;;;4.35;3.08;;;;;;;;;;622142;23;1368;-88
2023/08/12 00:17:37;;;;;;;3.88;3.10;;;;;;;;;;619754;23;1316;-88
2023/08/12 00:18:06;;;;;;;4.68;3.15;;;;;;;;;;619308;23;1491;-89
2023/08/12 00:18:22;;;;;;;6.53;3.43;;;;;;;;;;622099;23;2002;-89
2023/08/12 00:18:41;;;;;;;6.60;3.50;;;;;;;;;;622110;23;1198;-89
2023/08/12 00:19:00;;;;;;;7.00;3.53;;;;;;;;;;625539;23;1371;-88
2023/08/12 00:19:18;;;;;;;6.15;3.58;;;;;;;;;;625194;23;1331;-89
2023/08/12 00:19:43;;;;;;;6.40;3.65;;;;;;;;;;621693;23;1448;-88
2023/08/12 00:19:59;;;;;;;7.75;4.18;;;;;;;;;;622384;23;1276;-88
2023/08/12 00:20:25;;;;;;;7.30;3.65;;;;;;;;;;625022;23;1238;-88
2023/08/12 00:20:44;;;;;;;5.07;3.30;;;;;;;;;;622344;23;1282;-87
2023/08/12 00:21:09;;;;;;;6.13;3.53;;;;;;;;;;622363;23;845;-88
2023/08/12 00:21:31;;;;;;;5.75;3.67;;;;;;;;;;620614;23;1371;-88
2023/08/12 00:21:47;;;;;;;6.22;3.60;;;;;;;;;;622343;23;1277;-88
2023/08/12 00:22:04;;;;;;;10.57;3.90;;;;;;;;;;623016;23;939;-89
2023/08/12 00:22:23;;;;;;;11.25;3.75;;;;;;;;;;622503;23;1338;-88
2023/08/12 00:22:48;;;;;;;7.45;3.53;;;;;;;;;;624695;23;1420;-89
2023/08/12 00:23:04;;;;;;;7.82;3.70;;;;;;;;;;625385;23;1224;-89
2023/08/12 00:23:26;;;;;;;6.55;3.67;;;;;;;;;;625388;23;1348;-88
2023/08/12 00:23:44;;;;;;;4.90;3.40;;;;;;;;;;624580;23;1450;-88
2023/08/12 00:24:06;;;;;;;5.60;3.40;;;;;;;;;;625983;23;1443;-89
2023/08/12 00:24:22;;;;;;;6.22;3.50;;;;;;;;;;622505;23;1601;-88
2023/08/12 00:24:41;;;;;;;5.82;3.40;;;;;;;;;;622610;23;975;-89
2023/08/12 00:24:57;;;;;;;7.32;3.70;;;;;;;;;;621941;23;1399;-88
2023/08/12 00:25:13;;;;;;;6.73;3.80;;;;;;;;;;623445;23;1166;-87
2023/08/12 00:25:29;;;;;;;6.88;3.60;;;;;;;;;;622073;23;1443;-87
2023/08/12 00:25:45;;;;;;;5.97;3.53;;;;;;;;;;619043;23;1129;-88
2023/08/12 00:26:01;;;;;;;5.55;3.60;;;;;;;;;;619277;23;1455;-88
2023/08/12 00:26:19;;;;;;;5.10;3.60;;;;;;;;;;619751;23;1297;-87
2023/08/12 00:26:35;;;;;;;5.65;3.80;;;;;;;;;;619635;23;1362;-87
2023/08/12 00:26:51;;;;;;;7.10;4.15;;;;;;;;;;616160;23;1293;-88
2023/08/12 00:27:08;;;;;;;6.50;3.95;;;;;;;;;;613924;23;1179;-86
2023/08/12 00:27:26;;;;;;;4.47;3.47;;;;;;;;;;616464;23;1293;-89
2023/08/12 00:27:42;;;;;;;5.65;3.38;;;;;;;;;;616065;23;1397;-87
2023/08/12 00:27:57;;;;;;;7.30;3.72;;;;;;;;;;618999;23;1234;-88
2023/08/12 00:28:19;;;;;;;7.73;3.90;;;;;;;;;;622452;23;1389;-88
2023/08/12 00:28:48;;;;;;;6.28;3.70;;;;;;;;;;622301;23;1420;-87
2023/08/12 00:29:17;;;;;;;7.20;3.65;;;;;;;;;;622610;23;855;-88
2023/08/12 00:29:33;;;;;;;5.25;3.28;;;;;;;;;;619789;23;1277;-88
2023/08/12 00:29:49;;;;;;;5.85;3.30;;;;;;;;;;620210;23;1222;-87
2023/08/12 00:30:05;;;;;;;5.00;3.22;;;;;;;;;;623704;23;1256;-87
2023/08/12 00:30:21;;;;;;;4.70;3.33;;;;;;;;;;618719;23;1508;-86
2023/08/12 00:30:47;;;;;;;5.07;3.40;;;;;;;;;;621764;23;805;-87
2023/08/12 00:31:08;;;;;;;4.05;3.53;;;;;;;;;;618848;23;1323;-88
2023/08/12 00:31:29;;;;;;;5.05;3.85;;;;;;;;;;617020;23;1175;-87
2023/08/12 00:31:52;;;;;;;8.48;3.90;;;;;;;;;;616129;23;1483;-86
2023/08/12 00:32:25;;;;;;;7.15;3.55;;;;;;;;;;615393;23;1024;-86
2023/08/12 00:32:40;;;;;;;4.88;3.78;;;;;;;;;;615274;23;1580;-85
2023/08/12 00:33:02;;;;;;;6.15;3.80;;;;;;;;;;613989;23;1317;-85
2023/08/12 00:33:18;;;;;;;5.32;3.63;;;;;;;;;;619666;23;1263;-86
2023/08/12 00:33:41;;;;;;;4.97;3.70;;;;;;;;;;616131;23;1144;-86
2023/08/12 00:34:01;;;;;;;6.60;3.90;;;;;;;;;;619460;23;1481;-87
2023/08/12 00:34:23;;;;;;;6.53;3.92;;;;;;;;;;618801;23;1395;-86
2023/08/12 00:34:41;;;;;;;6.13;4.00;;;;;;;;;;621225;23;1567;-85
2023/08/12 00:35:00;;;;;;;6.00;3.80;;;;;;;;;;621398;23;1581;-83
2023/08/12 00:35:16;;;;;;;6.25;3.85;;;;;;;;;;623214;23;1376;-82
2023/08/12 00:35:53;;;;;;;;;;;;;;;;;;;;;
2023/08/12 00:36:12;;;;;;;6.35;3.92;;;;;;;;;;620678;23;761;-83
2023/08/12 00:36:30;;;;;;;5.85;3.95;;;;;;;;;;619894;23;1557;-82
2023/08/12 00:36:48;;;;;;;6.72;3.72;;;;;;;;;;621150;23;1284;-82
2023/08/12 00:37:04;;;;;;;6.03;3.63;;;;;;;;;;621141;23;1572;-83
2023/08/12 00:37:22;;;;;;;7.07;3.70;;;;;;;;;;619707;23;1206;-83
2023/08/12 00:37:38;;;;;;;8.07;3.90;;;;;;;;;;620838;23;1386;-82
2023/08/12 00:37:54;;;;;;;7.40;3.87;;;;;;;;;;620260;23;1596;-82
2023/08/12 00:38:19;;;;;;;6.88;3.85;;;;;;;;;;620626;23;1317;-83
2023/08/12 00:38:38;;;;;;;5.28;3.63;;;;;;;;;;620861;23;1277;-82
2023/08/12 00:38:53;;;;;;;6.18;3.58;;;;;;;;;;617869;23;1519;-83
2023/08/12 00:39:15;;;;;;;6.05;3.40;;;;;;;;;;617790;23;1602;-83
2023/08/12 00:39:31;;;;;;;4.65;3.38;;;;;;;;;;617787;23;1367;-82
2023/08/12 00:39:47;;;;;;;4.35;3.20;;;;;;;;;;617745;23;1131;-83
2023/08/12 00:40:03;;;;;;;4.72;3.38;;;;;;;;;;617741;23;1162;-83
2023/08/12 00:40:29;;;;;;;4.60;3.58;;;;;;;;;;615102;23;1257;-83
2023/08/12 00:40:48;;;;;;;7.55;4.00;;;;;;;;;;617477;23;1561;-83
2023/08/12 00:41:09;;;;;;;8.52;3.83;;;;;;;;;;614795;23;1355;-83
2023/08/12 00:41:38;;;;;;;7.53;3.83;;;;;;;;;;614939;23;1499;-83
2023/08/12 00:41:54;;;;;;;5.55;3.83;;;;;;;;;;615020;23;1357;-85
2023/08/12 00:42:31;;;;;;;5.43;3.80;;;;;;;;;;613384;23;1341;-83
2023/08/12 00:43:00;;;;;;;3.97;3.42;;;;;;;;;;617642;23;975;-83
2023/08/12 00:43:16;;;;;;;5.00;3.47;;;;;;;;;;618491;23;1460;-83
2023/08/12 00:43:40;;;;;;;5.95;3.50;;;;;;;;;;620608;23;931;-83
2023/08/12 00:43:59;;;;;;;5.75;3.78;;;;;;;;;;624594;23;1164;-83
2023/08/12 00:44:28;;;;;;;5.80;3.60;;;;;;;;;;624628;23;1501;-84
2023/08/12 00:44:56;;;;;;;8.07;3.78;;;;;;;;;;621420;23;1294;-83
2023/08/12 00:45:13;;;;;;;6.93;3.70;;;;;;;;;;619590;23;1232;-82
2023/08/12 00:45:37;;;;;;;6.25;3.67;;;;;;;;;;617871;23;1376;-83
2023/08/12 00:45:58;;;;;;;7.05;3.67;;;;;;;;;;615322;23;1498;-83
2023/08/12 00:46:32;;;;;;;7.60;3.70;;;;;;;;;;615282;23;1451;-82
2023/08/12 00:46:59;;;;;;;7.10;3.90;;;;;;;;;;618568;23;1355;-82
2023/08/12 00:47:16;;;;;;;6.93;3.70;;;;;;;;;;624058;23;1447;-82
2023/08/12 00:47:47;;;;;;;5.35;3.80;;;;;;;;;;624515;23;1504;-82
2023/08/12 00:48:12;;;;;;;5.70;3.53;;;;;;;;;;623086;23;1594;-82
2023/08/12 00:48:31;;;;;;;4.70;3.40;;;;;;;;;;618545;23;1188;-82
2023/08/12 00:49:13;;;;;;;4.25;3.40;;;;;;;;;;617389;23;1522;-83
2023/08/12 00:49:47;;;;;;;6.18;3.80;;;;;;;;;;623592;23;1568;-83
2023/08/12 00:50:27;;;;;;;6.00;4.13;;;;;;;;;;623952;23;1335;-81
2023/08/12 00:50:44;;;;;;;5.25;3.70;;;;;;;;;;621124;23;1262;-82
2023/08/12 00:51:26;;;;;;;6.38;3.75;;;;;;;;;;621294;23;1419;-85
2023/08/12 00:51:48;;;;;;;8.70;4.00;;;;;;;;;;624303;23;1260;-82
2023/08/12 00:52:55;;;;;;;7.50;3.85;;;;;;;;;;612604;24;1108;-84
2023/08/12 00:53:15;;;;;;;5.85;3.70;;;;;;;;;;612465;24;1337;-82
2023/08/12 00:53:43;;;;;;;5.90;3.75;;;;;;;;;;612282;24;1195;-82
2023/08/12 00:54:13;;;;;;;6.47;3.90;;;;;;;;;;620983;23;1602;-83
2023/08/12 00:54:34;;;;;;;6.13;3.67;;;;;;;;;;624248;23;1665;-83
2023/08/12 00:54:53;;;;;;;8.82;3.90;;;;;;;;;;621181;23;1350;-83
2023/08/12 00:55:09;;;;;;;7.25;3.40;;;;;;;;;;617879;23;1343;-82
2023/08/12 00:55:33;;;;;;;4.68;3.28;;;;;;;;;;618671;23;1315;-83
2023/08/12 00:56:03;;;;;;;6.28;3.72;;;;;;;;;;618617;23;1625;-83
2023/08/12 00:56:21;;;;;;;4.30;3.28;;;;;;;;;;617618;23;1438;-83
2023/08/12 00:56:40;;;;;;;5.20;3.45;;;;;;;;;;620880;23;1362;-84
2023/08/12 00:57:06;;;;;;;6.15;3.55;;;;;;;;;;621393;23;1436;-83
2023/08/12 00:57:28;;;;;;;9.32;3.80;;;;;;;;;;621206;23;1285;-84
2023/08/12 00:57:54;;;;;;;6.13;3.70;;;;;;;;;;621155;23;1378;-83
2023/08/12 00:58:29;;;;;;;8.20;3.88;;;;;;;;;;621846;23;1218;-82
2023/08/12 00:59:01;;;;;;;7.43;4.00;;;;;;;;;;624493;23;883;-83
2023/08/12 00:59:35;;;;;;;6.50;3.72;;;;;;;;;;623907;23;1415;-83
2023/08/12 01:00:26;;;;;;;;;;;;;;;;;;;;;
2023/08/12 01:00:54;;;;;;;8.63;4.00;;;;;;;;;;623866;23;774;-84
2023/08/12 01:01:35;;;;;;;6.32;4.00;;;;;;;;;;621941;23;1466;-87
2023/08/12 01:02:22;;;;;;;7.15;3.90;;;;;;;;;;622556;23;1367;-84
2023/08/12 01:02:59;;;;;;;7.28;4.20;;;;;;;;;;615204;23;1471;-83
2023/08/12 01:03:20;;;;;;;9.80;4.27;;;;;;;;;;626935;23;1404;-84
2023/08/12 01:03:45;;;;;;;9.35;4.40;;;;;;;;;;625622;23;1382;-83
2023/08/12 01:04:14;;;;;;;8.10;4.50;;;;;;;;;;630126;23;1585;-83
2023/08/12 01:05:00;;;;;;;6.60;4.40;;;;;;;;;;625886;23;1359;-84
2023/08/12 01:05:19;;;;;;;7.65;4.22;;;;;;;;;;624185;23;1355;-83
2023/08/12 01:05:36;;;;;;;7.47;4.30;;;;;;;;;;624228;23;1359;-82
2023/08/12 01:06:00;;;;;;;7.05;4.22;;;;;;;;;;621680;23;1253;-83
2023/08/12 01:06:17;;;;;;;8.93;4.70;;;;;;;;;;620746;23;1527;-83
2023/08/12 01:06:36;;;;;;;7.90;4.70;;;;;;;;;;618251;23;1367;-83
2023/08/12 01:06:55;;;;;;;7.60;4.82;;;;;;;;;;617875;23;1388;-83
2023/08/12 01:07:16;;;;;;;9.40;5.07;;;;;;;;;;621311;23;1415;-83
2023/08/12 01:07:33;;;;;;;8.20;5.10;;;;;;;;;;618367;23;1591;-84
2023/08/12 01:07:57;;;;;;;9.45;5.18;;;;;;;;;;619826;23;1180;-82
2023/08/12 01:08:19;;;;;;;8.55;4.90;;;;;;;;;;620927;23;1170;-83
2023/08/12 01:08:42;;;;;;;8.88;5.05;;;;;;;;;;621145;23;1362;-83
2023/08/12 01:09:05;;;;;;;8.38;5.25;;;;;;;;;;618065;23;1311;-84
2023/08/12 01:09:25;;;;;;;8.23;5.55;;;;;;;;;;618284;23;1406;-83
2023/08/12 01:09:41;;;;;;;6.72;5.28;;;;;;;;;;620849;23;1198;-82
2023/08/12 01:10:00;;;;;;;6.95;4.93;;;;;;;;;;619014;23;1619;-84
2023/08/12 01:10:28;;;;;;;6.72;4.82;;;;;;;;;;621848;23;1376;-83
2023/08/12 01:10:52;;;;;;;7.45;4.80;;;;;;;;;;622202;23;1321;-84
2023/08/12 01:11:26;;;;;;;6.85;4.68;;;;;;;;;;623506;23;1518;-83
2023/08/12 01:12:02;;;;;;;7.32;4.78;;;;;;;;;;624515;23;1265;-84
2023/08/12 01:12:31;;;;;;;5.72;4.47;;;;;;;;;;624703;23;1704;-83
2023/08/12 01:13:08;;;;;;;5.68;4.40;;;;;;;;;;625118;23;1359;-83
2023/08/12 01:13:50;;;;;;;9.35;5.57;;;;;;;;;;622163;23;1547;-83
2023/08/12 01:14:26;;;;;;;9.48;5.75;;;;;;;;;;622144;23;1175;-83
2023/08/12 01:15:14;;;;;;;9.02;5.63;;;;;;;;;;624568;23;1381;-83
2023/08/12 01:15:37;;;;;;;9.77;5.57;;;;;;;;;;624874;23;1614;-84
2023/08/12 01:16:03;;;;;;;8.38;5.70;;;;;;;;;;622574;23;1470;-84
2023/08/12 01:16:22;;;;;;;9.55;6.13;;;;;;;;;;618777;23;1356;-83
2023/08/12 01:16:43;;;;;;;8.65;5.93;;;;;;;;;;618175;23;1228;-83
2023/08/12 01:17:23;;;;;;;9.30;5.97;;;;;;;;;;618490;23;1371;-83
2023/08/12 01:17:44;;;;;;;7.70;6.20;;;;;;;;;;622009;23;1231;-83
2023/08/12 01:18:01;;;;;;;8.05;6.00;;;;;;;;;;622138;23;1602;-83
2023/08/12 01:18:20;;;;;;;9.27;6.22;;;;;;;;;;621731;23;1992;-84
2023/08/12 01:18:48;;;;;;;10.38;6.43;;;;;;;;;;621475;23;1411;-84
2023/08/12 01:19:27;;;;;;;7.38;6.10;;;;;;;;;;618715;23;1071;-83
2023/08/12 01:19:49;;;;;;;10.43;6.22;;;;;;;;;;621301;23;1463;-83
2023/08/12 01:20:14;;;;;;;10.23;6.25;;;;;;;;;;622124;23;1457;-84
2023/08/12 01:20:39;;;;;;;9.32;6.35;;;;;;;;;;621779;23;1272;-83
2023/08/12 01:21:03;;;;;;;10.50;6.50;;;;;;;;;;622984;23;1461;-82
2023/08/12 01:21:31;;;;;;;11.80;6.97;;;;;;;;;;622048;23;1595;-82
2023/08/12 01:21:55;;;;;;;11.85;7.25;;;;;;;;;;616342;23;1520;-83
2023/08/12 01:22:16;;;;;;;11.57;7.50;;;;;;;;;;622468;23;1399;-83
2023/08/12 01:22:44;;;;;;;12.85;7.80;;;;;;;;;;622128;23;1297;-84
2023/08/12 01:23:15;;;;;;;11.43;7.30;;;;;;;;;;622559;23;868;-83
2023/08/12 01:23:42;;;;;;;9.52;6.70;;;;;;;;;;622833;23;1295;-83
2023/08/12 01:24:08;;;;;;;12.20;6.88;;;;;;;;;;625225;23;1471;-84
2023/08/12 01:24:25;;;;;;;10.68;6.78;;;;;;;;;;623623;23;1469;-83
2023/08/12 01:24:43;;;;;;;10.65;6.88;;;;;;;;;;622452;23;1336;-84
2023/08/12 01:24:59;;;;;;;10.32;6.75;;;;;;;;;;622009;23;1463;-84
2023/08/12 01:25:15;;;;;;;11.13;6.90;;;;;;;;;;618125;23;1372;-84
2023/08/12 01:25:33;;;;;;;12.32;6.90;;;;;;;;;;618696;23;1253;-84
2023/08/12 01:25:49;;;;;;;11.43;7.18;;;;;;;;;;621694;23;1485;-84
2023/08/12 01:26:05;;;;;;;11.37;7.40;;;;;;;;;;624476;23;1249;-83
2023/08/12 01:26:21;;;;;;;11.27;7.25;;;;;;;;;;621649;23;1233;-83
2023/08/12 01:26:37;;;;;;;11.10;7.25;;;;;;;;;;621230;23;827;-83
2023/08/12 01:26:55;;;;;;;10.73;7.50;;;;;;;;;;621333;23;1332;-84
2023/08/12 01:27:13;;;;;;;11.57;7.43;;;;;;;;;;621601;23;1214;-84
2023/08/12 01:27:32;;;;;;;10.98;7.32;;;;;;;;;;615520;23;1367;-82
2023/08/12 01:27:48;;;;;;;10.32;7.47;;;;;;;;;;615639;23;1466;-84
2023/08/12 01:28:04;;;;;;;11.00;7.57;;;;;;;;;;615441;23;1349;-84
2023/08/12 01:28:23;;;;;;;12.05;7.65;;;;;;;;;;615436;23;1263;-84
2023/08/12 01:28:42;;;;;;;11.13;7.50;;;;;;;;;;616035;23;1377;-84
2023/08/12 01:28:57;;;;;;;10.18;7.53;;;;;;;;;;615733;23;875;-84
2023/08/12 01:29:17;;;;;;;10.40;7.93;;;;;;;;;;615958;23;1426;-83
2023/08/12 01:29:41;;;;;;;11.05;8.20;;;;;;;;;;616159;23;1442;-84
2023/08/12 01:29:59;;;;;;;10.93;8.20;;;;;;;;;;615345;23;1382;-84
2023/08/12 01:30:16;;;;;;;11.25;8.05;;;;;;;;;;616957;23;1533;-83
2023/08/12 01:30:35;;;;;;;12.95;8.43;;;;;;;;;;616745;23;1158;-83
2023/08/12 01:31:15;;;;;;;14.35;9.10;;;;;;;;;;618321;23;1541;-83
2023/08/12 01:31:51;;;;;;;13.43;8.65;;;;;;;;;;624033;23;769;-84
2023/08/12 01:32:43;;;;;;;13.43;9.73;;;;;;;;;;624587;23;1427;-84
2023/08/12 01:33:26;;;;;;;14.15;10.20;;;;;;;;;;630614;23;890;-83
2023/08/12 01:34:06;;;;;;;15.90;10.93;;;;;;;;;;627487;23;1330;-83
2023/08/12 01:34:41;;;;;;;15.55;10.95;;;;;;;;;;624310;23;1375;-82
2023/08/12 01:35:09;;;;;;;13.77;10.20;;;;;;;;;;626978;23;1445;-83
2023/08/12 01:35:49;;;;;;;13.55;10.25;;;;;;;;;;627272;23;988;-82
2023/08/12 01:36:21;;;;;;;14.75;10.63;;;;;;;;;;623997;23;899;-79
2023/08/12 01:36:48;;;;;;;13.30;10.67;;;;;;;;;;624044;23;1350;-82
2023/08/12 01:37:26;;;;;;;14.07;11.23;;;;;;;;;;623706;23;883;-82
2023/08/12 01:37:50;;;;;;;17.35;12.13;;;;;;;;;;620866;23;1384;-81
2023/08/12 01:38:23;;;;;;;17.40;11.70;;;;;;;;;;618216;23;1305;-80
2023/08/12 01:38:48;;;;;;;18.38;12.73;;;;;;;;;;620944;23;1355;-79
2023/08/12 01:39:13;;;;;;;18.50;13.10;;;;;;;;;;620990;23;1371;-79
2023/08/12 01:39:31;;;;;;;19.27;13.20;;;;;;;;;;620905;23;1281;-79
2023/08/12 01:39:48;;;;;;;18.88;13.13;;;;;;;;;;617694;23;1314;-78
2023/08/12 01:40:05;;;;;;;21.00;13.75;;;;;;;;;;617896;23;1194;-79
2023/08/12 01:40:22;;;;;;;23.42;14.20;;;;;;;;;;615137;23;1444;-79
2023/08/12 01:40:44;;;;;;;22.25;14.35;;;;;;;;;;617812;23;1451;-79
2023/08/12 01:41:03;;;;;;;20.38;14.80;;;;;;;;;;623876;23;1529;-79
2023/08/12 01:41:25;;;;;;;22.23;15.45;;;;;;;;;;620933;23;1330;-79
2023/08/12 01:41:46;;;;;;;20.50;15.27;;;;;;;;;;622372;23;1267;-80
2023/08/12 01:42:06;;;;;;;19.95;15.02;;;;;;;;;;621002;23;1541;-81
2023/08/12 01:42:25;;;;;;;22.48;15.75;;;;;;;;;;617200;23;1162;-81
2023/08/12 01:42:47;;;;;;;22.70;16.27;;;;;;;;;;617828;23;1500;-81
2023/08/12 01:43:08;;;;;;;20.60;15.30;;;;;;;;;;620665;23;1284;-81
2023/08/12 01:43:28;;;;;;;20.02;14.80;;;;;;;;;;620806;23;1320;-81
2023/08/12 01:43:45;;;;;;;19.38;15.88;;;;;;;;;;617855;23;1426;-81
2023/08/12 01:44:06;;;;;;;22.17;16.88;;;;;;;;;;621215;23;1268;-81
2023/08/12 01:44:22;;;;;;;25.23;17.50;;;;;;;;;;621015;23;1148;-82
2023/08/12 01:44:50;;;;;;;24.67;17.65;;;;;;;;;;621200;23;1328;-81
2023/08/12 01:45:06;;;;;;;20.63;16.55;;;;;;;;;;617974;23;1152;-81
2023/08/12 01:45:26;;;;;;;18.65;16.10;;;;;;;;;;618556;23;1638;-82
2023/08/12 01:45:47;;;;;;;22.85;17.63;;;;;;;;;;618497;23;1336;-82
2023/08/12 01:46:03;;;;;;;22.98;17.50;;;;;;;;;;621222;23;1431;-81
2023/08/12 01:46:21;;;;;;;23.98;18.05;;;;;;;;;;621352;23;1517;-81
2023/08/12 01:46:42;;;;;;;26.00;18.92;;;;;;;;;;621334;23;1468;-83
2023/08/12 01:47:02;;;;;;;23.67;18.50;;;;;;;;;;624342;23;1392;-81
2023/08/12 01:47:23;;;;;;;24.92;18.48;;;;;;;;;;624532;23;1397;-81
2023/08/12 01:47:42;;;;;;;24.15;18.60;;;;;;;;;;621215;23;1518;-82
2023/08/12 01:48:05;;;;;;;23.30;19.00;;;;;;;;;;624517;23;1435;-82
2023/08/12 01:48:26;;;;;;;23.80;19.38;;;;;;;;;;621105;23;1438;-81
2023/08/12 01:48:43;;;;;;;27.67;20.35;;;;;;;;;;620948;23;1462;-83
2023/08/12 01:49:01;;;;;;;29.38;20.63;;;;;;;;;;618293;23;1173;-82
2023/08/12 01:49:25;;;;;;;27.65;20.42;;;;;;;;;;621511;23;1584;-81
2023/08/12 01:49:49;;;;;;;28.80;20.50;;;;;;;;;;617216;23;1600;-81
2023/08/12 01:50:21;;;;;;;28.83;20.80;;;;;;;;;;617752;23;1404;-79
2023/08/12 01:50:46;;;;;;;33.17;23.08;;;;;;;;;;616933;23;1582;-81
2023/08/12 01:51:04;;;;;;;31.65;22.73;;;;;;;;;;617630;23;1299;-81
2023/08/12 01:51:20;;;;;;;28.73;21.63;;;;;;;;;;614994;23;1459;-82
2023/08/12 01:51:42;;;;;;;31.30;22.02;;;;;;;;;;615272;23;1288;-82
2023/08/12 01:52:07;;;;;;;25.38;19.23;;;;;;;;;;616136;23;1302;-82
2023/08/12 01:52:34;;;;;;;24.58;20.13;;;;;;;;;;618255;23;1095;-80
2023/08/12 01:52:55;;;;;;;22.73;20.13;;;;;;;;;;620696;23;1561;-81
2023/08/12 01:53:14;;;;;;;22.67;19.98;;;;;;;;;;620759;23;1391;-81
2023/08/12 01:53:31;;;;;;;23.60;19.80;;;;;;;;;;620789;23;1583;-81
2023/08/12 01:53:49;;;;;;;22.83;19.23;;;;;;;;;;617933;23;1317;-81
2023/08/12 01:54:08;;;;;;;23.50;18.77;;;;;;;;;;618109;23;1487;-81
2023/08/12 01:54:24;;;;;;;21.42;18.17;;;;;;;;;;618123;23;1256;-81
2023/08/12 01:54:43;;;;;;;20.58;18.38;;;;;;;;;;618991;23;900;-82
2023/08/12 01:55:01;;;;;;;21.45;18.48;;;;;;;;;;618434;23;1311;-82
2023/08/12 01:55:17;;;;;;;21.85;18.20;;;;;;;;;;620727;23;1268;-81
2023/08/12 01:55:36;;;;;;;22.50;17.67;;;;;;;;;;618010;23;1480;-82
2023/08/12 01:55:52;;;;;;;21.63;17.45;;;;;;;;;;620885;23;1382;-81
2023/08/12 01:56:08;;;;;;;19.70;17.40;;;;;;;;;;621196;23;1354;-80
2023/08/12 01:56:24;;;;;;;19.48;17.38;;;;;;;;;;617855;23;1328;-80
2023/08/12 01:56:43;;;;;;;18.80;16.85;;;;;;;;;;618466;23;1506;-80
2023/08/12 01:57:07;;;;;;;19.42;17.00;;;;;;;;;;618966;23;760;-81
2023/08/12 01:57:23;;;;;;;24.45;19.38;;;;;;;;;;619219;23;1532;-80
2023/08/12 01:57:49;;;;;;;23.70;18.77;;;;;;;;;;622168;23;1213;-79
2023/08/12 01:58:07;;;;;;;23.30;18.92;;;;;;;;;;622497;23;1466;-80
2023/08/12 01:58:23;;;;;;;24.70;18.88;;;;;;;;;;623451;23;1981;-80
2023/08/12 01:58:45;;;;;;;23.48;18.52;;;;;;;;;;623963;23;1363;-80
2023/08/12 01:59:04;;;;;;;26.77;19.88;;;;;;;;;;621160;23;1461;-80
2023/08/12 01:59:22;;;;;;;27.08;20.27;;;;;;;;;;618678;23;1407;-80
2023/08/12 01:59:43;;;;;;;25.03;20.50;;;;;;;;;;621314;23;1315;-80
2023/08/12 02:00:16;;;;;;;26.55;21.13;;;;;;;;;;618390;23;1459;-80
2023/08/12 02:00:35;;;;;;;24.05;19.77;;;;;;;;;;619159;23;891;-80
2023/08/12 02:00:59;;;;;;;26.25;20.65;;;;;;;;;;618047;23;1588;-79
2023/08/12 02:01:17;;;;;;;28.48;21.88;;;;;;;;;;620569;23;1391;-79
2023/08/12 02:01:39;;;;;;;30.42;22.08;;;;;;;;;;619162;23;1029;-80
2023/08/12 02:01:55;;;;;;;28.80;21.77;;;;;;;;;;620981;23;1048;-80
2023/08/12 02:02:16;;;;;;;27.27;21.38;;;;;;;;;;620925;23;1371;-79
2023/08/12 02:02:35;;;;;;;26.83;21.38;;;;;;;;;;620913;23;1311;-80
2023/08/12 02:03:39;;;;;;;27.10;21.70;;;;;;;;;;623896;23;1419;-81
2023/08/12 02:03:42;;;;;;;30.83;22.98;;;;;;;;;;618582;23;759;-80
2023/08/12 02:04:00;;;;;;;29.98;23.35;;;;;;;;;;626865;23;898;-80
2023/08/12 02:04:16;;;;;;;31.05;23.40;;;;;;;;;;620413;23;1374;-80
2023/08/12 02:04:38;;;;;;;32.10;23.98;;;;;;;;;;623453;23;1343;-80
2023/08/12 02:05:15;;;;;;;32.70;24.48;;;;;;;;;;623679;23;1495;-81
2023/08/12 02:05:37;;;;;;;30.15;23.48;;;;;;;;;;620223;23;1283;-81
2023/08/12 02:05:59;;;;;;;28.02;22.27;;;;;;;;;;620744;23;1296;-80
2023/08/12 02:06:17;;;;;;;25.08;21.40;;;;;;;;;;620735;23;1119;-81
2023/08/12 02:06:33;;;;;;;30.10;23.58;;;;;;;;;;617917;23;1452;-80
2023/08/12 02:06:55;;;;;;;32.78;24.33;;;;;;;;;;617996;23;1419;-81
2023/08/12 02:07:42;;;;;;;31.63;24.30;;;;;;;;;;618505;23;1444;-80
2023/08/12 02:08:01;;;;;;;28.13;22.80;;;;;;;;;;616086;23;1443;-79
2023/08/12 02:08:22;;;;;;;32.17;24.50;;;;;;;;;;621018;23;931;-80
2023/08/12 02:08:38;;;;;;;33.42;24.77;;;;;;;;;;624510;23;1375;-80
2023/08/12 02:08:54;;;;;;;33.33;25.10;;;;;;;;;;626956;23;855;-80
2023/08/12 02:09:10;;;;;;;31.80;24.33;;;;;;;;;;623954;23;1224;-80
2023/08/12 02:09:29;;;;;;;27.70;22.13;;;;;;;;;;624073;23;1192;-80
2023/08/12 02:09:45;;;;;;;25.10;20.58;;;;;;;;;;624177;23;879;-81
2023/08/12 02:10:03;;;;;;;25.58;21.13;;;;;;;;;;624057;23;1564;-80
2023/08/12 02:10:22;;;;;;;29.75;23.15;;;;;;;;;;623951;23;1401;-80
2023/08/12 02:10:40;;;;;;;32.65;25.20;;;;;;;;;;624060;23;1347;-80
2023/08/12 02:11:02;;;;;;;32.10;25.50;;;;;;;;;;623818;23;1263;-80
2023/08/12 02:11:18;;;;;;;33.58;25.90;;;;;;;;;;620935;23;1275;-80
2023/08/12 02:11:33;;;;;;;33.83;25.55;;;;;;;;;;620596;23;1466;-81
2023/08/12 02:11:53;;;;;;;33.50;25.95;;;;;;;;;;621363;23;1144;-81
2023/08/12 02:12:09;;;;;;;34.03;26.75;;;;;;;;;;620506;23;1443;-80
2023/08/12 02:12:25;;;;;;;34.40;26.52;;;;;;;;;;621011;23;1160;-80
2023/08/12 02:12:53;;;;;;;36.45;27.27;;;;;;;;;;621236;23;1266;-80
2023/08/12 02:13:18;;;;;;;35.95;27.42;;;;;;;;;;621560;23;895;-82
2023/08/12 02:13:37;;;;;;;36.78;26.70;;;;;;;;;;620329;23;1491;-80
2023/08/12 02:13:55;;;;;;;36.55;26.75;;;;;;;;;;620705;23;1526;-79
2023/08/12 02:14:12;;;;;;;36.53;27.35;;;;;;;;;;617619;23;1492;-81
2023/08/12 02:14:38;;;;;;;32.50;25.83;;;;;;;;;;618250;23;1380;-81
2023/08/12 02:14:57;;;;;;;21.40;19.10;;;;;;;;;;620982;23;930;-81